Latest Weather Observations for Nambour

IDQ60901

Issued at 12:01 am EST Friday 9 December 2016 (issued every 10 minutes, with the page automatically refreshed every 10 minutes)

About weather observations | Map of Brisbane area stations | Latest observations for Brisbane area | Other Formats
Station Details ID: 040988 Name: NAMBOUR DAFF - HILLSIDE Lat: -26.64 Lon: 152.94 Height: 53.24 m
Data from the previous 72 hours. | See also: Recent months at Nambour
Date/Time
EST
Temp
°C
App
Temp
°C
Dew
Point
°C
Rel
Hum
%
Delta-T
°C
Wind Press
QNH
hPa
Press
MSL
hPa
Rain since
9am
mm
Dir  Spd
km/h
Gust
km/h
Spd
kts
Gust
kts
08/11:30pm 23.0 25.2 19.6 81 2.2 NNW 7 11 4 6 1010.6 1010.3 2.2
08/11:00pm 24.0 24.1 19.1 74 3.1 NW 17 28 9 15 1010.9 1010.6 0.6
08/10:30pm 24.7 26.4 19.3 72 3.5 NNW 9 17 5 9 1010.8 1010.5 0.2
08/10:00pm 24.9 27.4 19.9 74 3.2 NNW 6 13 3 7 1010.9 1010.6 0.2
08/09:30pm 25.4 27.9 19.8 71 3.6 N 6 7 3 4 1010.1 1009.8 0.0
08/09:00pm 25.8 28.7 19.9 70 3.8 NNW 4 9 2 5 1010.4 1010.1 0.0
08/08:30pm 26.0 29.8 20.1 70 3.8 CALM 0 2 0 1 1009.9 1009.6 0.0
08/08:00pm 26.1 29.4 20.0 69 4.0 WNW 2 6 1 3 1009.8 1009.5 0.0
08/07:30pm 25.9 28.9 20.0 70 3.8 NE 4 6 2 3 1009.6 1009.3 0.0
08/07:00pm 26.5 29.3 19.6 66 4.5 S 4 7 2 4 1010.3 1010.0 0.0
08/06:30pm 26.7 28.9 19.6 65 4.6 NNE 7 17 4 9 1008.8 1008.5 0.0
08/06:00pm 27.2 29.3 19.3 62 5.1 N 7 13 4 7 1008.1 1007.9 0.0
08/05:30pm 27.5 28.8 19.3 61 5.3 NE 11 20 6 11 1007.1 1006.9 0.0
08/05:00pm 28.2 29.1 19.2 58 5.8 N 13 22 7 12 1007.6 1007.4 0.0
08/04:30pm 29.0 29.8 19.0 54 6.5 NNE 13 24 7 13 1007.0 1006.8 0.0
08/04:00pm 29.3 30.4 19.6 56 6.4 NE 13 24 7 13 1007.2 1007.0 0.0
08/03:30pm 30.0 31.5 20.5 56 6.3 NE 13 20 7 11 1007.5 1007.3 0.0
08/03:00pm 30.1 31.0 20.1 55 6.6 NE 15 24 8 13 1007.9 1007.7 0.0
08/02:30pm 30.4 31.5 19.7 52 7.0 NE 13 24 7 13 1008.6 1008.3 0.0
08/02:00pm 31.8 33.5 18.4 45 8.7 NNW 7 17 4 9 1009.2 1008.9 0.0
08/01:30pm 30.8 32.0 18.2 47 8.1 N 9 17 5 9 1009.9 1009.6 0.0
08/01:00pm 30.4 32.4 18.8 50 7.5 N 6 13 3 7 1010.3 1010.0 0.0
08/12:30pm 30.8 32.4 19.2 50 7.6 N 9 17 5 9 1010.8 1010.5 0.0
08/12:00pm 29.9 31.8 19.0 52 7.1 N 7 13 4 7 1011.2 1010.9 0.0
08/11:30am 29.5 31.4 18.9 53 6.9 NE 7 17 4 9 1011.6 1011.3 0.0
08/11:00am 28.8 30.7 18.9 55 6.4 NNE 7 13 4 7 1011.9 1011.6 0.0
08/10:30am 28.1 30.3 19.1 58 5.8 NNW 6 9 3 5 1012.1 1011.8 0.0
08/10:00am 27.3 29.5 19.6 62 5.0 N 7 11 4 6 1012.2 1011.9 0.0
08/09:30am 27.2 29.9 19.5 62 5.0 N 4 9 2 5 1012.5 1012.2 0.0
08/09:00am 26.9 29.6 19.5 64 4.8 N 4 7 2 4 1012.8 1012.5 0.4
08/08:30am 26.9 30.0 21.0 70 3.9 NNW 6 7 3 4 1012.8 1012.5 0.2
08/08:00am 26.3 29.2 20.6 71 3.7 NE 6 9 3 5 1012.5 1012.2 0.2
08/07:30am 25.4 29.3 21.1 77 2.8 N 2 6 1 3 1012.5 1012.2 0.2
08/07:00am 24.7 29.0 21.2 81 2.3 CALM 0 0 0 0 1012.6 1012.3 0.2
08/06:30am 24.0 28.6 21.7 87 1.5 CALM 0 0 0 0 1012.4 1012.1 0.2
08/06:00am 23.7 28.5 22.1 91 1.1 CALM 0 4 0 2 1012.3 1012.0 0.2
08/05:30am 23.6 27.9 21.9 90 1.1 NW 2 4 1 2 1012.5 1012.2 0.2
08/05:00am 23.6 28.3 21.9 90 1.1 CALM 0 0 0 0 1012.4 1012.1 0.2
08/04:30am 23.5 28.1 21.8 90 1.1 CALM 0 0 0 0 1012.3 1012.0 0.2
08/04:00am 23.5 28.1 21.8 90 1.1 CALM 0 0 0 0 1012.2 1011.9 0.2
08/03:30am 23.5 28.0 21.6 89 1.3 CALM 0 0 0 0 1012.1 1011.8 0.2
08/03:00am 23.6 28.3 21.9 90 1.1 CALM 0 0 0 0 1012.3 1012.0 0.2
08/02:30am 23.5 28.1 21.8 90 1.1 CALM 0 0 0 0 1012.3 1012.0 0.2
08/02:00am 23.5 28.1 21.8 90 1.1 CALM 0 2 0 1 1012.4 1012.1 0.2
08/01:30am 23.4 28.0 21.8 91 1.1 CALM 0 0 0 0 1012.3 1012.0 0.2
08/01:00am 23.3 27.8 21.6 90 1.1 CALM 0 0 0 0 1012.6 1012.3 0.2
08/12:30am 23.4 28.0 21.7 90 1.1 CALM 0 0 0 0 1013.1 1012.8 0.2
08/12:00am 23.5 28.0 21.6 89 1.3 CALM 0 2 0 1 1013.8 1013.5 0.2
 
Date/Time
EST
Temp
°C
App
Temp
°C
Dew
Point
°C
Rel
Hum
%
Delta-T
°C
Wind Press
QNH
hPa
Press
MSL
hPa
Rain since
9am
mm
Dir  Spd
km/h
Gust
km/h
Spd
kts
Gust
kts
07/11:30pm 23.4 27.6 21.7 90 1.1 S 2 6 1 3 1014.1 1013.8 0.2
07/11:00pm 23.2 27.0 21.6 91 1.1 WSW 4 6 2 3 1014.6 1014.3 0.2
07/10:30pm 23.1 27.6 21.5 91 1.1 CALM 0 4 0 2 1014.9 1014.6 0.2
07/10:00pm 23.3 27.9 21.7 91 1.1 CALM 0 0 0 0 1014.4 1014.1 0.2
07/09:30pm 23.4 27.6 21.8 91 1.1 ENE 2 4 1 2 1013.9 1013.6 0.2
07/09:00pm 23.4 27.6 21.7 90 1.1 SW 2 6 1 3 1013.2 1012.9 0.2
07/08:30pm 23.7 27.9 21.8 89 1.3 SSE 2 6 1 3 1013.1 1012.8 0.2
07/08:00pm 23.9 28.5 21.8 88 1.4 CALM 0 2 0 1 1013.2 1012.9 0.2
07/07:30pm 24.4 28.3 21.1 82 2.2 SSW 2 6 1 3 1013.1 1012.8 0.0
07/07:00pm 24.6 28.8 20.9 80 2.4 CALM 0 0 0 0 1013.0 1012.7 0.0
07/06:30pm 24.8 28.5 20.7 78 2.7 SSW 2 4 1 2 1012.8 1012.5 0.0
07/06:00pm 26.3 29.7 20.2 69 4.0 NE 2 4 1 2 1012.2 1011.9 0.0
07/05:30pm 26.4 29.4 20.0 68 4.2 N 4 6 2 3 1011.6 1011.3 0.0
07/05:00pm 26.5 29.6 19.4 65 4.6 NE 2 6 1 3 1011.2 1010.9 0.0
07/04:30pm 26.8 28.4 19.2 63 4.9 ESE 9 15 5 8 1010.7 1010.4 0.0
07/04:00pm 28.4 30.4 19.9 60 5.6 ENE 9 20 5 11 1010.1 1009.8 0.0
07/03:30pm 29.4 29.6 19.4 55 6.5 E 17 24 9 13 1009.7 1009.4 0.0
07/03:00pm 31.0 31.6 19.4 50 7.6 ENE 15 22 8 12 1009.8 1009.5 0.0
07/02:30pm 33.0 34.1 18.0 41 9.7 NNW 9 17 5 9 1010.1 1009.8 0.0
07/02:00pm 32.8 34.4 18.2 42 9.5 N 7 13 4 7 1010.2 1009.9 0.0
07/01:30pm 32.3 33.7 19.5 46 8.4 ENE 11 19 6 10 1010.4 1010.1 0.0
07/01:00pm 31.7 33.2 19.7 49 7.9 E 11 19 6 10 1010.8 1010.5 0.0
07/12:30pm 31.8 34.0 19.1 47 8.3 NE 6 17 3 9 1011.2 1010.9 0.0
07/12:00pm 30.8 32.7 18.5 47 8.0 NW 6 13 3 7 1011.6 1011.3 0.0
07/11:30am 29.7 32.1 18.8 52 7.1 NW 4 9 2 5 1012.1 1011.8 0.0
07/11:00am 29.0 30.8 18.7 53 6.6 NNE 7 11 4 6 1012.8 1012.5 0.0
07/10:30am 28.0 29.9 19.0 58 5.8 N 7 11 4 6 1013.3 1013.0 0.0
07/10:00am 27.3 28.8 18.9 60 5.4 N 9 17 5 9 1013.6 1013.3 0.0
07/09:30am 26.1 27.6 19.0 65 4.6 N 9 15 5 8 1013.9 1013.6 0.0
07/09:00am 25.6 28.1 19.0 67 4.2 N 4 7 2 4 1014.0 1013.7 0.0
07/08:30am 25.0 26.7 18.4 66 4.2 NNE 7 11 4 6 1013.7 1013.4 0.0
07/08:00am 25.3 27.6 18.5 66 4.3 N 4 7 2 4 1014.3 1014.0 0.0
07/07:30am 25.4 28.5 18.6 66 4.3 CALM 0 0 0 0 1014.8 1014.5 0.0
07/07:00am 25.0 27.1 18.9 69 3.9 N 6 11 3 6 1014.9 1014.6 0.0
07/06:30am 23.9 26.7 18.8 73 3.2 NW 2 6 1 3 1014.7 1014.4 0.0
07/06:00am 23.5 26.4 19.0 76 2.9 NNW 2 6 1 3 1014.3 1014.0 0.0
07/05:30am 23.1 25.8 18.6 76 2.8 WSW 2 4 1 2 1014.1 1013.8 0.0
07/05:00am 23.1 26.2 18.6 76 2.8 CALM 0 0 0 0 1013.9 1013.6 0.0
07/04:30am 23.5 26.2 18.6 74 3.1 E 2 4 1 2 1013.7 1013.4 0.0
07/04:00am 23.7 26.3 18.4 72 3.3 ESE 2 4 1 2 1013.6 1013.3 0.0
07/03:30am 24.0 26.2 18.4 71 3.5 WSW 4 6 2 3 1013.2 1012.9 0.0
07/03:00am 23.9 26.3 18.8 73 3.2 NNE 4 9 2 5 1012.4 1012.1 0.0
07/02:30am 23.8 25.7 18.9 74 3.1 NNW 7 15 4 8 1011.8 1011.5 0.0
07/02:00am 23.7 25.2 18.8 74 3.1 NNW 9 17 5 9 1011.5 1011.2 0.0
07/01:30am 23.7 25.5 18.8 74 3.1 NNW 7 15 4 8 1011.5 1011.2 0.0
07/01:00am 23.9 25.4 18.8 73 3.2 NNW 9 19 5 10 1012.0 1011.7 0.0
07/12:30am 24.1 25.8 18.5 71 3.5 NNW 7 17 4 9 1012.3 1012.0 0.0
07/12:00am 24.1 25.5 17.8 68 3.9 NNW 7 13 4 7 1012.5 1012.2 0.0
 
Date/Time
EST
Temp
°C
App
Temp
°C
Dew
Point
°C
Rel
Hum
%
Delta-T
°C
Wind Press
QNH
hPa
Press
MSL
hPa
Rain since
9am
mm
Dir  Spd
km/h
Gust
km/h
Spd
kts
Gust
kts
06/11:30pm 24.1 26.2 18.1 69 3.8 NW 4 7 2 4 1012.6 1012.3 0.0
06/11:00pm 24.4 26.1 18.1 68 4.0 N 6 13 3 7 1012.8 1012.5 0.0
06/10:30pm 24.6 25.6 17.8 66 4.3 NNE 9 17 5 9 1012.4 1012.1 0.0
06/10:00pm 25.0 25.9 17.5 63 4.7 N 9 13 5 7 1012.9 1012.6 0.0
06/09:30pm 25.5 26.3 17.2 60 5.2 N 9 19 5 10 1012.4 1012.1 0.0
06/09:00pm 26.2 27.1 16.7 56 5.9 N 7 11 4 6 1012.1 1011.8 0.0
06/08:30pm 26.6 27.6 16.8 55 6.1 N 7 15 4 8 1012.5 1012.2 0.0
06/08:00pm 26.8 28.1 17.6 57 5.8 N 7 17 4 9 1012.2 1011.9 0.0
06/07:30pm 26.9 28.9 18.7 60 5.3 NNE 6 9 3 5 1011.9 1011.6 0.0
06/07:00pm 27.5 30.0 19.0 59 5.5 N 4 7 2 4 1011.1 1010.8 0.0
06/06:30pm 28.0 30.1 19.0 58 5.8 NNE 6 9 3 5 1010.8 1010.5 0.0
06/06:00pm 28.5 30.4 18.9 56 6.2 E 7 13 4 7 1010.3 1010.0 0.0
06/05:30pm 30.1 31.6 18.8 50 7.3 E 9 19 5 10 1009.7 1009.4 0.0
06/05:00pm 32.5 33.3 17.2 40 9.8 NNE 9 17 5 9 1009.4 1009.1 0.0
06/04:30pm 35.0 35.0 15.3 30 12.3 NNW 9 20 5 11 1009.0 1008.7 0.0
06/04:00pm 35.5 35.0 15.8 31 12.5 NW 13 22 7 12 1009.0 1008.7 0.0
06/03:30pm 34.8 34.0 16.1 32 11.8 N 15 24 8 13 1009.3 1009.0 0.0
06/03:00pm 34.7 34.6 16.1 33 11.8 N 11 20 6 11 1009.8 1009.5 0.0
06/02:30pm 34.0 33.5 15.9 33 11.4 NNW 13 24 7 13 1010.5 1010.2 0.0
06/02:00pm 31.6 32.6 18.6 46 8.4 E 11 17 6 9 1011.3 1011.0 0.0
06/01:30pm 32.0 32.9 17.5 42 9.3 NNE 9 19 5 10 1011.9 1011.6 0.0
06/01:00pm 32.5 32.7 16.8 39 10.0 N 11 20 6 11 1012.6 1012.3 0.0
06/12:30pm 32.4 32.6 15.8 36 10.4 N 9 17 5 9 1013.1 1012.8 0.0
06/12:00pm 31.1 31.9 18.1 46 8.4 N 11 17 6 9 1013.9 1013.6 0.0
06/11:30am 30.4 30.0 17.1 44 8.4 NNE 15 26 8 14 1014.7 1014.4 0.0
06/11:00am 30.1 30.3 18.5 49 7.5 NNE 15 28 8 15 1015.5 1015.2 0.0
06/10:30am 29.0 28.2 18.1 51 7.0 NE 19 28 10 15 1016.2 1015.9 0.0
06/10:00am 28.2 28.7 18.3 55 6.3 N 13 22 7 12 1017.0 1016.7 0.0
06/09:30am 27.6 28.3 18.9 59 5.6 NNE 13 28 7 15 1017.4 1017.1 0.0
06/09:00am 26.7 27.9 19.8 66 4.5 NE 13 20 7 11 1017.6 1017.3 0.4
06/08:30am 24.9 26.8 19.7 73 3.4 NNE 9 15 5 8 1018.3 1018.1 0.4
06/08:00am 24.4 27.1 20.3 78 2.7 NNE 6 9 3 5 1018.6 1018.4 0.4
06/07:30am 23.9 27.1 20.6 82 2.2 N 4 11 2 6 1018.8 1018.6 0.4
06/07:00am 23.1 26.3 21.2 89 1.2 NNW 6 7 3 4 1018.6 1018.4 0.4
06/06:30am 22.8 26.7 21.1 90 1.1 WNW 2 6 1 3 1018.7 1018.5 0.4
06/06:00am 22.5 26.2 20.8 90 1.1 SW 2 6 1 3 1017.8 1017.5 0.4
06/05:30am 22.6 26.0 20.1 86 1.6 SSE 2 4 1 2 1017.3 1017.0 0.4
06/05:00am 23.7 26.9 18.8 74 3.1 CALM 0 2 0 1 1016.3 1016.0 0.0
06/04:30am 24.1 27.4 19.0 73 3.3 CALM 0 4 0 2 1015.8 1015.5 0.0
06/04:00am 23.9 27.1 18.8 73 3.2 CALM 0 4 0 2 1015.0 1014.7 0.0
06/03:30am 24.0 25.7 18.6 72 3.4 N 7 17 4 9 1013.6 1013.3 0.0
06/03:00am 24.2 25.2 18.6 71 3.6 NNW 11 20 6 11 1013.0 1012.7 0.0
06/02:30am 24.2 25.9 18.6 71 3.6 N 7 13 4 7 1013.2 1012.9 0.0
06/02:00am 24.3 25.3 18.7 71 3.6 N 11 17 6 9 1013.2 1012.9 0.0
06/01:30am 24.2 25.7 18.8 72 3.4 NNW 9 17 5 9 1013.3 1013.0 0.0
06/01:00am 24.4 25.9 18.8 71 3.6 N 9 17 5 9 1013.4 1013.1 0.0
06/12:30am 24.5 26.5 19.1 72 3.5 N 7 15 4 8 1013.9 1013.6 0.0

Latest Capital City Observations: Canberra | Sydney | Melbourne | Brisbane | Adelaide | Perth | Hobart | Darwin

Other Formats:

Comma delimited format used in spreadsheet applications
http://www.bom.gov.au/fwo/IDQ60901/IDQ60901.95572.axf

JavaScript Object Notation format (JSON) in row-major order
http://www.bom.gov.au/fwo/IDQ60901/IDQ60901.95572.json